sensor_id;sensor_type;location;lat;lon;timestamp;pressure;altitude;pressure_sealevel;temperature;humidity
64844;BME280;51310;52.198;5.422;2023-03-31T00:00:56;100088.44;;;8.59;100.00
64844;BME280;51310;52.198;5.422;2023-03-31T00:03:25;100083.47;;;8.60;100.00
64844;BME280;51310;52.198;5.422;2023-03-31T00:05:58;100078.47;;;8.62;100.00
64844;BME280;51310;52.198;5.422;2023-03-31T00:08:27;100070.78;;;8.62;100.00
64844;BME280;51310;52.198;5.422;2023-03-31T00:10:58;100071.69;;;8.62;100.00
64844;BME280;51310;52.198;5.422;2023-03-31T00:13:25;100059.59;;;8.61;100.00
64844;BME280;51310;52.198;5.422;2023-03-31T00:16:07;100054.97;;;8.57;100.00
64844;BME280;51310;52.198;5.422;2023-03-31T00:18:33;100057.03;;;8.61;100.00
64844;BME280;51310;52.198;5.422;2023-03-31T00:21:14;100039.84;;;8.60;100.00
64844;BME280;51310;52.198;5.422;2023-03-31T00:23:53;100036.50;;;8.61;100.00
64844;BME280;51310;52.198;5.422;2023-03-31T00:26:19;100036.41;;;8.60;100.00
64844;BME280;51310;52.198;5.422;2023-03-31T00:28:49;100035.75;;;8.62;100.00
64844;BME280;51310;52.198;5.422;2023-03-31T00:31:15;100028.97;;;8.63;100.00
64844;BME280;51310;52.198;5.422;2023-03-31T00:33:41;100027.72;;;8.68;100.00
64844;BME280;51310;52.198;5.422;2023-03-31T00:36:07;100024.41;;;8.69;100.00
64844;BME280;51310;52.198;5.422;2023-03-31T00:38:34;100020.00;;;8.68;100.00
64844;BME280;51310;52.198;5.422;2023-03-31T00:41:01;100014.00;;;8.68;100.00
64844;BME280;51310;52.198;5.422;2023-03-31T00:43:36;100007.19;;;8.68;100.00
64844;BME280;51310;52.198;5.422;2023-03-31T00:46:18;99997.84;;;8.69;100.00
64844;BME280;51310;52.198;5.422;2023-03-31T00:48:56;99991.78;;;8.68;100.00
64844;BME280;51310;52.198;5.422;2023-03-31T00:51:27;99989.84;;;8.66;100.00
64844;BME280;51310;52.198;5.422;2023-03-31T00:54:00;99983.97;;;8.67;100.00
64844;BME280;51310;52.198;5.422;2023-03-31T00:56:35;99982.47;;;8.69;100.00
64844;BME280;51310;52.198;5.422;2023-03-31T00:59:06;99974.75;;;8.69;100.00
64844;BME280;51310;52.198;5.422;2023-03-31T01:01:33;99967.47;;;8.73;100.00
64844;BME280;51310;52.198;5.422;2023-03-31T01:04:05;99967.34;;;8.72;100.00
64844;BME280;51310;52.198;5.422;2023-03-31T01:06:42;99966.13;;;8.68;100.00
64844;BME280;51310;52.198;5.422;2023-03-31T01:09:13;99956.91;;;8.70;100.00
64844;BME280;51310;52.198;5.422;2023-03-31T01:11:43;99952.84;;;8.72;100.00
64844;BME280;51310;52.198;5.422;2023-03-31T01:14:11;99951.59;;;8.77;100.00
64844;BME280;51310;52.198;5.422;2023-03-31T01:16:36;99943.53;;;8.83;100.00
64844;BME280;51310;52.198;5.422;2023-03-31T01:19:12;99942.41;;;8.90;100.00
64844;BME280;51310;52.198;5.422;2023-03-31T01:30:32;99910.75;;;8.99;100.00
64844;BME280;51310;52.198;5.422;2023-03-31T01:52:20;99864.28;;;8.86;100.00
64844;BME280;51310;52.198;5.422;2023-03-31T01:55:11;99869.25;;;8.85;100.00
64844;BME280;51310;52.198;5.422;2023-03-31T01:58:10;99863.09;;;8.82;100.00
64844;BME280;51310;52.198;5.422;2023-03-31T02:00:40;99853.13;;;8.86;100.00
64844;BME280;51310;52.198;5.422;2023-03-31T02:03:12;99856.28;;;8.83;100.00
64844;BME280;51310;52.198;5.422;2023-03-31T02:05:48;99845.66;;;8.89;100.00
64844;BME280;51310;52.198;5.422;2023-03-31T02:08:23;99851.44;;;8.86;100.00
64844;BME280;51310;52.198;5.422;2023-03-31T02:10:53;99844.38;;;8.83;100.00
64844;BME280;51310;52.198;5.422;2023-03-31T02:13:21;99829.88;;;8.84;100.00
64844;BME280;51310;52.198;5.422;2023-03-31T02:15:54;99826.44;;;8.83;100.00
64844;BME280;51310;52.198;5.422;2023-03-31T02:18:26;99824.91;;;8.86;100.00
64844;BME280;51310;52.198;5.422;2023-03-31T02:20:57;99818.09;;;8.86;100.00
64844;BME280;51310;52.198;5.422;2023-03-31T02:23:27;99813.84;;;8.87;100.00
64844;BME280;51310;52.198;5.422;2023-03-31T02:28:37;99801.56;;;8.93;100.00
64844;BME280;51310;52.198;5.422;2023-03-31T02:31:27;99796.81;;;8.97;100.00
64844;BME280;51310;52.198;5.422;2023-03-31T02:34:00;99796.94;;;8.99;100.00
64844;BME280;51310;52.198;5.422;2023-03-31T02:36:27;99784.13;;;8.99;100.00
64844;BME280;51310;52.198;5.422;2023-03-31T02:39:02;99778.47;;;9.03;100.00
64844;BME280;51310;52.198;5.422;2023-03-31T02:41:29;99771.03;;;9.06;100.00
64844;BME280;51310;52.198;5.422;2023-03-31T02:43:55;99755.78;;;9.08;100.00
64844;BME280;51310;52.198;5.422;2023-03-31T02:46:21;99760.13;;;9.09;100.00
64844;BME280;51310;52.198;5.422;2023-03-31T02:48:51;99767.31;;;9.13;100.00
64844;BME280;51310;52.198;5.422;2023-03-31T02:54:51;99738.81;;;9.20;100.00
64844;BME280;51310;52.198;5.422;2023-03-31T03:12:42;99699.94;;;9.15;100.00
64844;BME280;51310;52.198;5.422;2023-03-31T03:15:31;99688.38;;;9.10;100.00
64844;BME280;51310;52.198;5.422;2023-03-31T03:17:57;99685.44;;;9.06;100.00
64844;BME280;51310;52.198;5.422;2023-03-31T03:20:24;99675.41;;;9.09;100.00
64844;BME280;51310;52.198;5.422;2023-03-31T03:22:50;99676.19;;;9.08;100.00
64844;BME280;51310;52.198;5.422;2023-03-31T03:25:16;99666.59;;;9.05;100.00
64844;BME280;51310;52.198;5.422;2023-03-31T03:27:43;99664.25;;;8.98;100.00
64844;BME280;51310;52.198;5.422;2023-03-31T03:30:11;99650.66;;;8.99;100.00
64844;BME280;51310;52.198;5.422;2023-03-31T03:32:38;99653.75;;;8.95;100.00
64844;BME280;51310;52.198;5.422;2023-03-31T03:35:05;99654.78;;;8.97;100.00
64844;BME280;51310;52.198;5.422;2023-03-31T03:37:32;99655.41;;;8.94;100.00
64844;BME280;51310;52.198;5.422;2023-03-31T03:39:58;99653.47;;;8.92;100.00
64844;BME280;51310;52.198;5.422;2023-03-31T03:42:24;99637.97;;;8.90;100.00
64844;BME280;51310;52.198;5.422;2023-03-31T03:44:50;99627.56;;;8.89;100.00
64844;BME280;51310;52.198;5.422;2023-03-31T03:47:16;99632.31;;;8.84;100.00
64844;BME280;51310;52.198;5.422;2023-03-31T03:49:42;99626.16;;;8.82;100.00
64844;BME280;51310;52.198;5.422;2023-03-31T03:52:08;99616.66;;;8.81;100.00
64844;BME280;51310;52.198;5.422;2023-03-31T03:54:33;99602.94;;;8.80;100.00
64844;BME280;51310;52.198;5.422;2023-03-31T03:56:59;99600.38;;;8.80;100.00
64844;BME280;51310;52.198;5.422;2023-03-31T03:59:25;99594.09;;;8.77;100.00
64844;BME280;51310;52.198;5.422;2023-03-31T04:01:50;99598.44;;;8.78;100.00
64844;BME280;51310;52.198;5.422;2023-03-31T04:04:17;99584.47;;;8.74;100.00
64844;BME280;51310;52.198;5.422;2023-03-31T04:06:43;99581.78;;;8.73;100.00
64844;BME280;51310;52.198;5.422;2023-03-31T04:09:09;99576.91;;;8.76;100.00
64844;BME280;51310;52.198;5.422;2023-03-31T04:11:35;99577.41;;;8.72;100.00
64844;BME280;51310;52.198;5.422;2023-03-31T04:14:00;99575.50;;;8.69;100.00
64844;BME280;51310;52.198;5.422;2023-03-31T04:16:26;99571.41;;;8.71;100.00
64844;BME280;51310;52.198;5.422;2023-03-31T04:18:53;99561.66;;;8.67;100.00
64844;BME280;51310;52.198;5.422;2023-03-31T04:21:22;99557.41;;;8.68;100.00
64844;BME280;51310;52.198;5.422;2023-03-31T04:23:51;99553.81;;;8.66;100.00
64844;BME280;51310;52.198;5.422;2023-03-31T04:26:25;99536.50;;;8.63;100.00
64844;BME280;51310;52.198;5.422;2023-03-31T04:28:58;99522.94;;;8.54;100.00
64844;BME280;51310;52.198;5.422;2023-03-31T04:31:26;99528.06;;;8.54;100.00
64844;BME280;51310;52.198;5.422;2023-03-31T04:33:55;99511.66;;;8.52;100.00
64844;BME280;51310;52.198;5.422;2023-03-31T04:36:30;99501.25;;;8.50;100.00
64844;BME280;51310;52.198;5.422;2023-03-31T04:38:56;99498.44;;;8.47;100.00
64844;BME280;51310;52.198;5.422;2023-03-31T04:41:24;99497.81;;;8.50;100.00
64844;BME280;51310;52.198;5.422;2023-03-31T04:43:52;99480.59;;;8.49;100.00
64844;BME280;51310;52.198;5.422;2023-03-31T04:46:18;99469.72;;;8.51;100.00
64844;BME280;51310;52.198;5.422;2023-03-31T04:48:44;99463.69;;;8.51;100.00
64844;BME280;51310;52.198;5.422;2023-03-31T04:51:10;99456.41;;;8.55;100.00
64844;BME280;51310;52.198;5.422;2023-03-31T04:53:39;99455.38;;;8.53;100.00
64844;BME280;51310;52.198;5.422;2023-03-31T04:56:05;99444.19;;;8.53;100.00
64844;BME280;51310;52.198;5.422;2023-03-31T04:58:32;99438.31;;;8.54;100.00
64844;BME280;51310;52.198;5.422;2023-03-31T05:00:58;99438.31;;;8.54;100.00
64844;BME280;51310;52.198;5.422;2023-03-31T05:03:23;99433.84;;;8.51;100.00
64844;BME280;51310;52.198;5.422;2023-03-31T05:05:49;99436.63;;;8.54;100.00
64844;BME280;51310;52.198;5.422;2023-03-31T05:08:15;99426.75;;;8.59;100.00
64844;BME280;51310;52.198;5.422;2023-03-31T05:10:41;99421.63;;;8.59;100.00
64844;BME280;51310;52.198;5.422;2023-03-31T05:13:09;99413.16;;;8.60;100.00
64844;BME280;51310;52.198;5.422;2023-03-31T05:15:37;99405.47;;;8.60;100.00
64844;BME280;51310;52.198;5.422;2023-03-31T05:18:04;99399.44;;;8.59;100.00
64844;BME280;51310;52.198;5.422;2023-03-31T05:20:30;99403.16;;;8.63;100.00
64844;BME280;51310;52.198;5.422;2023-03-31T05:22:56;99394.56;;;8.62;100.00
64844;BME280;51310;52.198;5.422;2023-03-31T05:25:21;99393.91;;;8.65;100.00
64844;BME280;51310;52.198;5.422;2023-03-31T05:27:48;99392.13;;;8.64;100.00
64844;BME280;51310;52.198;5.422;2023-03-31T05:30:16;99383.66;;;8.65;100.00
64844;BME280;51310;52.198;5.422;2023-03-31T05:32:42;99381.22;;;8.67;100.00
64844;BME280;51310;52.198;5.422;2023-03-31T05:35:09;99372.63;;;8.66;100.00
64844;BME280;51310;52.198;5.422;2023-03-31T05:37:35;99378.00;;;8.69;100.00
64844;BME280;51310;52.198;5.422;2023-03-31T05:40:02;99375.56;;;8.71;100.00
64844;BME280;51310;52.198;5.422;2023-03-31T05:42:30;99369.50;;;8.70;100.00
64844;BME280;51310;52.198;5.422;2023-03-31T05:44:56;99366.19;;;8.71;100.00
64844;BME280;51310;52.198;5.422;2023-03-31T05:47:22;99372.34;;;8.73;100.00
64844;BME280;51310;52.198;5.422;2023-03-31T05:49:47;99365.66;;;8.75;100.00
64844;BME280;51310;52.198;5.422;2023-03-31T05:52:13;99356.28;;;8.76;100.00
64844;BME280;51310;52.198;5.422;2023-03-31T05:54:39;99351.28;;;8.77;100.00
64844;BME280;51310;52.198;5.422;2023-03-31T05:57:06;99348.72;;;8.77;100.00
64844;BME280;51310;52.198;5.422;2023-03-31T05:59:32;99345.28;;;8.77;100.00
64844;BME280;51310;52.198;5.422;2023-03-31T06:02:00;99337.03;;;8.81;100.00
64844;BME280;51310;52.198;5.422;2023-03-31T06:04:26;99337.16;;;8.82;100.00
64844;BME280;51310;52.198;5.422;2023-03-31T06:06:52;99338.03;;;8.83;100.00
64844;BME280;51310;52.198;5.422;2023-03-31T06:09:19;99338.16;;;8.85;100.00
64844;BME280;51310;52.198;5.422;2023-03-31T06:11:44;99331.50;;;8.87;100.00
64844;BME280;51310;52.198;5.422;2023-03-31T06:14:11;99320.69;;;8.91;100.00
64844;BME280;51310;52.198;5.422;2023-03-31T06:16:37;99323.41;;;8.92;100.00
64844;BME280;51310;52.198;5.422;2023-03-31T06:19:03;99318.13;;;8.91;100.00
64844;BME280;51310;52.198;5.422;2023-03-31T06:21:29;99329.53;;;8.94;100.00
64844;BME280;51310;52.198;5.422;2023-03-31T06:23:55;99319.50;;;8.97;100.00
64844;BME280;51310;52.198;5.422;2023-03-31T06:26:22;99321.94;;;8.96;100.00
64844;BME280;51310;52.198;5.422;2023-03-31T06:28:49;99311.69;;;8.96;100.00
64844;BME280;51310;52.198;5.422;2023-03-31T06:31:22;99306.91;;;9.00;100.00
64844;BME280;51310;52.198;5.422;2023-03-31T06:33:48;99301.78;;;9.00;100.00
64844;BME280;51310;52.198;5.422;2023-03-31T06:36:18;99303.56;;;9.01;100.00
64844;BME280;51310;52.198;5.422;2023-03-31T06:38:45;99294.53;;;9.07;100.00
64844;BME280;51310;52.198;5.422;2023-03-31T06:41:13;99293.13;;;9.10;100.00
64844;BME280;51310;52.198;5.422;2023-03-31T06:43:40;99285.66;;;9.13;100.00
64844;BME280;51310;52.198;5.422;2023-03-31T06:46:06;99290.25;;;9.17;100.00
64844;BME280;51310;52.198;5.422;2023-03-31T06:48:32;99281.88;;;9.20;100.00
64844;BME280;51310;52.198;5.422;2023-03-31T06:51:03;99280.44;;;9.23;100.00
64844;BME280;51310;52.198;5.422;2023-03-31T06:53:29;99273.75;;;9.26;100.00
64844;BME280;51310;52.198;5.422;2023-03-31T06:55:55;99272.34;;;9.29;100.00
64844;BME280;51310;52.198;5.422;2023-03-31T06:58:21;99259.72;;;9.32;100.00
64844;BME280;51310;52.198;5.422;2023-03-31T07:00:47;99266.41;;;9.30;100.00
64844;BME280;51310;52.198;5.422;2023-03-31T07:03:13;99264.09;;;9.33;100.00
64844;BME280;51310;52.198;5.422;2023-03-31T07:05:51;99258.97;;;9.33;100.00
64844;BME280;51310;52.198;5.422;2023-03-31T07:08:18;99264.66;;;9.41;100.00
64844;BME280;51310;52.198;5.422;2023-03-31T07:10:44;99261.00;;;9.49;100.00
64844;BME280;51310;52.198;5.422;2023-03-31T07:13:17;99248.28;;;9.51;100.00
64844;BME280;51310;52.198;5.422;2023-03-31T07:15:46;99258.44;;;9.49;100.00
64844;BME280;51310;52.198;5.422;2023-03-31T07:18:13;99255.31;;;9.53;100.00
64844;BME280;51310;52.198;5.422;2023-03-31T07:20:41;99246.03;;;9.55;100.00
64844;BME280;51310;52.198;5.422;2023-03-31T07:23:07;99255.19;;;9.52;100.00
64844;BME280;51310;52.198;5.422;2023-03-31T07:25:34;99250.19;;;9.53;100.00
64844;BME280;51310;52.198;5.422;2023-03-31T07:28:00;99246.81;;;9.54;100.00
64844;BME280;51310;52.198;5.422;2023-03-31T07:30:26;99247.47;;;9.52;100.00
64844;BME280;51310;52.198;5.422;2023-03-31T07:32:53;99240.91;;;9.55;100.00
64844;BME280;51310;52.198;5.422;2023-03-31T07:35:20;99249.28;;;9.53;100.00
64844;BME280;51310;52.198;5.422;2023-03-31T07:37:48;99236.78;;;9.57;100.00
64844;BME280;51310;52.198;5.422;2023-03-31T07:40:20;99246.50;;;9.61;100.00
64844;BME280;51310;52.198;5.422;2023-03-31T07:42:47;99240.25;;;9.58;100.00
64844;BME280;51310;52.198;5.422;2023-03-31T07:45:15;99236.00;;;9.58;100.00
64844;BME280;51310;52.198;5.422;2023-03-31T07:47:42;99240.25;;;9.58;100.00
64844;BME280;51310;52.198;5.422;2023-03-31T07:50:08;99231.41;;;9.54;100.00
64844;BME280;51310;52.198;5.422;2023-03-31T07:52:34;99238.91;;;9.63;100.00
64844;BME280;51310;52.198;5.422;2023-03-31T07:55:00;99234.78;;;9.65;100.00
64844;BME280;51310;52.198;5.422;2023-03-31T07:57:26;99228.19;;;9.69;100.00
64844;BME280;51310;52.198;5.422;2023-03-31T07:59:51;99232.19;;;9.65;100.00
64844;BME280;51310;52.198;5.422;2023-03-31T08:02:17;99226.06;;;9.63;100.00
64844;BME280;51310;52.198;5.422;2023-03-31T08:04:44;99232.88;;;9.62;100.00
64844;BME280;51310;52.198;5.422;2023-03-31T08:07:12;99228.19;;;9.57;100.00
64844;BME280;51310;52.198;5.422;2023-03-31T08:09:39;99218.34;;;9.63;100.00
64844;BME280;51310;52.198;5.422;2023-03-31T08:12:05;99222.50;;;9.73;100.00
64844;BME280;51310;52.198;5.422;2023-03-31T08:14:31;99220.03;;;9.86;100.00
64844;BME280;51310;52.198;5.422;2023-03-31T08:16:58;99220.81;;;9.97;100.00
64844;BME280;51310;52.198;5.422;2023-03-31T08:19:26;99216.47;;;10.07;100.00
64844;BME280;51310;52.198;5.422;2023-03-31T08:21:52;99214.22;;;10.24;100.00
64844;BME280;51310;52.198;5.422;2023-03-31T08:24:18;99206.31;;;10.33;100.00
64844;BME280;51310;52.198;5.422;2023-03-31T08:26:44;99200.13;;;10.42;100.00
64844;BME280;51310;52.198;5.422;2023-03-31T08:29:10;99198.19;;;10.52;100.00
64844;BME280;51310;52.198;5.422;2023-03-31T08:31:36;99200.56;;;10.49;100.00
64844;BME280;51310;52.198;5.422;2023-03-31T08:34:02;99201.34;;;10.48;100.00
64844;BME280;51310;52.198;5.422;2023-03-31T08:36:28;99197.78;;;10.45;100.00
64844;BME280;51310;52.198;5.422;2023-03-31T08:38:54;99202.69;;;10.54;100.00
64844;BME280;51310;52.198;5.422;2023-03-31T08:44:10;99187.91;;;10.52;100.00
64844;BME280;51310;52.198;5.422;2023-03-31T08:46:41;99185.00;;;10.47;100.00
64844;BME280;51310;52.198;5.422;2023-03-31T08:49:14;99182.00;;;10.41;100.00
64844;BME280;51310;52.198;5.422;2023-03-31T08:51:48;99171.84;;;10.19;100.00
64844;BME280;51310;52.198;5.422;2023-03-31T08:54:30;99171.84;;;10.19;100.00
64844;BME280;51310;52.198;5.422;2023-03-31T08:56:57;99171.53;;;10.14;100.00
64844;BME280;51310;52.198;5.422;2023-03-31T08:59:29;99185.59;;;10.19;100.00
64844;BME280;51310;52.198;5.422;2023-03-31T09:07:47;99169.06;;;10.39;100.00
64844;BME280;51310;52.198;5.422;2023-03-31T09:10:40;99167.44;;;10.53;100.00
64844;BME280;51310;52.198;5.422;2023-03-31T09:13:28;99162.06;;;10.75;100.00
64844;BME280;51310;52.198;5.422;2023-03-31T09:16:15;99151.78;;;10.75;100.00
64844;BME280;51310;52.198;5.422;2023-03-31T09:18:42;99150.72;;;10.72;100.00
64844;BME280;51310;52.198;5.422;2023-03-31T09:21:22;99147.06;;;10.81;100.00
64844;BME280;51310;52.198;5.422;2023-03-31T09:23:56;99143.03;;;10.85;100.00
64844;BME280;51310;52.198;5.422;2023-03-31T09:26:52;99138.66;;;10.84;100.00
64844;BME280;51310;52.198;5.422;2023-03-31T09:29:39;99140.16;;;10.80;100.00
64844;BME280;51310;52.198;5.422;2023-03-31T09:32:24;99124.06;;;10.71;100.00
64844;BME280;51310;52.198;5.422;2023-03-31T09:35:19;99116.28;;;10.83;100.00
64844;BME280;51310;52.198;5.422;2023-03-31T09:37:47;99119.63;;;11.07;100.00
64844;BME280;51310;52.198;5.422;2023-03-31T09:40:25;99118.28;;;11.39;100.00
64844;BME280;51310;52.198;5.422;2023-03-31T09:43:26;99123.66;;;11.68;100.00
64844;BME280;51310;52.198;5.422;2023-03-31T09:45:54;99107.56;;;11.86;100.00
64844;BME280;51310;52.198;5.422;2023-03-31T09:48:29;99107.19;;;11.93;100.00
64844;BME280;51310;52.198;5.422;2023-03-31T09:51:03;99104.28;;;12.02;100.00
64844;BME280;51310;52.198;5.422;2023-03-31T09:54:09;99097.56;;;12.04;100.00
64844;BME280;51310;52.198;5.422;2023-03-31T09:59:27;99090.38;;;12.13;100.00
64844;BME280;51310;52.198;5.422;2023-03-31T10:01:59;99095.22;;;12.22;100.00
64844;BME280;51310;52.198;5.422;2023-03-31T10:04:31;99089.50;;;12.41;100.00
64844;BME280;51310;52.198;5.422;2023-03-31T10:06:59;99098.69;;;12.22;100.00
64844;BME280;51310;52.198;5.422;2023-03-31T10:09:30;99089.41;;;12.39;100.00
64844;BME280;51310;52.198;5.422;2023-03-31T10:12:07;99083.88;;;12.61;100.00
64844;BME280;51310;52.198;5.422;2023-03-31T10:14:47;99094.69;;;12.56;100.00
64844;BME280;51310;52.198;5.422;2023-03-31T10:17:17;99081.28;;;12.61;100.00
64844;BME280;51310;52.198;5.422;2023-03-31T10:19:58;99074.81;;;12.68;100.00
64844;BME280;51310;52.198;5.422;2023-03-31T10:22:29;99068.03;;;12.70;100.00
64844;BME280;51310;52.198;5.422;2023-03-31T10:25:14;99083.25;;;12.80;100.00
64844;BME280;51310;52.198;5.422;2023-03-31T10:27:41;99064.81;;;12.89;100.00
64844;BME280;51310;52.198;5.422;2023-03-31T10:30:15;99069.56;;;12.96;100.00
64844;BME280;51310;52.198;5.422;2023-03-31T10:32:42;99065.91;;;12.92;100.00
64844;BME280;51310;52.198;5.422;2023-03-31T10:35:20;99066.38;;;13.00;100.00
64844;BME280;51310;52.198;5.422;2023-03-31T10:37:50;99066.00;;;12.94;100.00
64844;BME280;51310;52.198;5.422;2023-03-31T10:40:23;99062.34;;;13.05;100.00
64844;BME280;51310;52.198;5.422;2023-03-31T10:45:55;99046.34;;;13.11;100.00
64844;BME280;51310;52.198;5.422;2023-03-31T10:48:32;99042.38;;;13.32;100.00
64844;BME280;51310;52.198;5.422;2023-03-31T10:51:10;99042.22;;;13.44;100.00
64844;BME280;51310;52.198;5.422;2023-03-31T10:53:48;99028.03;;;13.52;100.00
64844;BME280;51310;52.198;5.422;2023-03-31T10:56:37;99031.44;;;13.37;100.00
64844;BME280;51310;52.198;5.422;2023-03-31T11:02:45;99038.66;;;12.98;100.00
64844;BME280;51310;52.198;5.422;2023-03-31T11:05:32;99039.56;;;12.98;100.00
64844;BME280;51310;52.198;5.422;2023-03-31T11:11:47;99034.94;;;13.37;100.00
64844;BME280;51310;52.198;5.422;2023-03-31T11:17:26;99038.28;;;13.06;100.00
64844;BME280;51310;52.198;5.422;2023-03-31T11:22:49;99043.72;;;12.66;100.00
64844;BME280;51310;52.198;5.422;2023-03-31T11:28:29;99034.72;;;12.60;100.00
64844;BME280;51310;52.198;5.422;2023-03-31T11:41:01;99031.34;;;11.89;100.00
64844;BME280;51310;52.198;5.422;2023-03-31T11:43:49;99029.28;;;11.70;100.00
64844;BME280;51310;52.198;5.422;2023-03-31T11:46:24;99026.91;;;11.60;100.00
64844;BME280;51310;52.198;5.422;2023-03-31T11:48:58;99034.25;;;11.54;100.00
64844;BME280;51310;52.198;5.422;2023-03-31T11:51:41;99027.41;;;11.55;100.00
64844;BME280;51310;52.198;5.422;2023-03-31T11:54:21;99039.13;;;11.49;100.00
64844;BME280;51310;52.198;5.422;2023-03-31T11:56:48;99038.91;;;11.46;100.00
64844;BME280;51310;52.198;5.422;2023-03-31T11:59:18;99030.09;;;11.56;100.00
64844;BME280;51310;52.198;5.422;2023-03-31T12:01:59;99034.53;;;11.59;100.00
64844;BME280;51310;52.198;5.422;2023-03-31T12:04:38;99035.34;;;11.58;100.00
64844;BME280;51310;52.198;5.422;2023-03-31T12:10:02;99050.91;;;11.33;100.00
64844;BME280;51310;52.198;5.422;2023-03-31T12:12:38;99039.91;;;11.35;100.00
64844;BME280;51310;52.198;5.422;2023-03-31T12:15:32;99010.59;;;11.33;100.00
64844;BME280;51310;52.198;5.422;2023-03-31T12:18:23;99012.38;;;11.47;100.00
64844;BME280;51310;52.198;5.422;2023-03-31T12:20:55;99016.28;;;11.69;100.00
64844;BME280;51310;52.198;5.422;2023-03-31T12:23:27;99023.59;;;11.76;100.00
64844;BME280;51310;52.198;5.422;2023-03-31T12:26:16;99016.00;;;11.64;100.00
64844;BME280;51310;52.198;5.422;2023-03-31T12:28:59;99013.44;;;11.38;100.00
64844;BME280;51310;52.198;5.422;2023-03-31T12:31:31;99012.56;;;11.37;100.00
64844;BME280;51310;52.198;5.422;2023-03-31T12:34:00;99009.28;;;11.40;100.00
64844;BME280;51310;52.198;5.422;2023-03-31T12:36:50;99009.25;;;11.53;100.00
64844;BME280;51310;52.198;5.422;2023-03-31T12:39:49;99004.78;;;11.64;100.00
64844;BME280;51310;52.198;5.422;2023-03-31T12:42:48;99003.69;;;11.74;100.00
64844;BME280;51310;52.198;5.422;2023-03-31T12:45:32;99000.50;;;11.91;100.00
64844;BME280;51310;52.198;5.422;2023-03-31T12:54:48;98981.94;;;12.25;100.00
64844;BME280;51310;52.198;5.422;2023-03-31T12:57:25;98980.50;;;12.30;100.00
64844;BME280;51310;52.198;5.422;2023-03-31T13:00:26;98986.69;;;12.04;100.00
64844;BME280;51310;52.198;5.422;2023-03-31T13:06:04;98976.09;;;11.58;100.00
64844;BME280;51310;52.198;5.422;2023-03-31T13:08:54;98971.19;;;11.76;100.00
64844;BME280;51310;52.198;5.422;2023-03-31T13:16:35;98963.88;;;12.25;100.00
64844;BME280;51310;52.198;5.422;2023-03-31T13:19:01;98956.03;;;12.23;100.00
64844;BME280;51310;52.198;5.422;2023-03-31T13:21:27;98949.06;;;12.22;100.00
64844;BME280;51310;52.198;5.422;2023-03-31T13:23:58;98951.25;;;12.29;100.00
64844;BME280;51310;52.198;5.422;2023-03-31T13:26:54;98946.13;;;12.01;100.00
64844;BME280;51310;52.198;5.422;2023-03-31T13:29:42;98953.13;;;11.89;100.00
64844;BME280;51310;52.198;5.422;2023-03-31T13:32:23;98946.75;;;11.56;100.00
64844;BME280;51310;52.198;5.422;2023-03-31T13:34:56;98944.84;;;11.53;100.00
64844;BME280;51310;52.198;5.422;2023-03-31T13:46:44;98941.94;;;11.34;100.00
64844;BME280;51310;52.198;5.422;2023-03-31T13:53:01;98931.59;;;11.19;100.00
64844;BME280;51310;52.198;5.422;2023-03-31T14:06:58;98908.00;;;12.10;100.00
64844;BME280;51310;52.198;5.422;2023-03-31T14:09:33;98912.66;;;12.31;100.00
64844;BME280;51310;52.198;5.422;2023-03-31T14:14:53;98908.88;;;12.11;100.00
64844;BME280;51310;52.198;5.422;2023-03-31T14:17:32;98909.75;;;11.97;100.00
64844;BME280;51310;52.198;5.422;2023-03-31T14:20:27;98912.41;;;11.98;100.00
64844;BME280;51310;52.198;5.422;2023-03-31T14:23:32;98904.53;;;12.10;100.00
64844;BME280;51310;52.198;5.422;2023-03-31T14:26:37;98901.06;;;12.24;100.00
64844;BME280;51310;52.198;5.422;2023-03-31T14:29:29;98900.81;;;12.35;100.00
64844;BME280;51310;52.198;5.422;2023-03-31T14:35:30;98891.03;;;12.29;100.00
64844;BME280;51310;52.198;5.422;2023-03-31T14:38:02;98888.53;;;12.30;100.00
64844;BME280;51310;52.198;5.422;2023-03-31T14:40:29;98879.44;;;12.22;100.00
64844;BME280;51310;52.198;5.422;2023-03-31T14:42:55;98879.75;;;12.27;100.00
64844;BME280;51310;52.198;5.422;2023-03-31T14:45:25;98880.94;;;11.89;100.00
64844;BME280;51310;52.198;5.422;2023-03-31T14:48:15;98882.31;;;11.84;100.00
64844;BME280;51310;52.198;5.422;2023-03-31T14:50:45;98886.72;;;11.72;100.00
64844;BME280;51310;52.198;5.422;2023-03-31T14:53:16;98876.25;;;11.68;100.00
64844;BME280;51310;52.198;5.422;2023-03-31T14:55:44;98883.88;;;11.67;100.00
64844;BME280;51310;52.198;5.422;2023-03-31T14:58:23;98903.00;;;11.70;100.00
64844;BME280;51310;52.198;5.422;2023-03-31T15:00:52;98896.22;;;11.44;100.00
64844;BME280;51310;52.198;5.422;2023-03-31T15:03:19;98883.56;;;11.47;100.00
64844;BME280;51310;52.198;5.422;2023-03-31T15:05:45;98877.84;;;11.38;100.00
64844;BME280;51310;52.198;5.422;2023-03-31T15:08:17;98876.06;;;11.37;100.00
64844;BME280;51310;52.198;5.422;2023-03-31T15:10:55;98871.44;;;11.60;100.00
64844;BME280;51310;52.198;5.422;2023-03-31T15:13:40;98876.31;;;11.70;100.00
64844;BME280;51310;52.198;5.422;2023-03-31T15:16:42;98876.25;;;11.68;100.00
64844;BME280;51310;52.198;5.422;2023-03-31T15:19:19;98877.03;;;11.67;100.00
64844;BME280;51310;52.198;5.422;2023-03-31T15:21:58;98874.69;;;11.57;100.00
64844;BME280;51310;52.198;5.422;2023-03-31T15:24:29;98878.03;;;11.41;100.00
64844;BME280;51310;52.198;5.422;2023-03-31T15:27:39;98880.25;;;11.22;100.00
64844;BME280;51310;52.198;5.422;2023-03-31T15:30:22;98877.63;;;11.07;100.00
64844;BME280;51310;52.198;5.422;2023-03-31T15:32:48;98881.09;;;10.94;100.00
64844;BME280;51310;52.198;5.422;2023-03-31T15:35:31;98876.75;;;10.93;100.00
64844;BME280;51310;52.198;5.422;2023-03-31T15:38:00;98876.47;;;10.88;100.00
64844;BME280;51310;52.198;5.422;2023-03-31T15:40:30;98882.28;;;10.86;100.00